America — WDE6076 — position and weather

sailwx.info

Track history (hours):
 
Tides and Currents Weather Stations Pressure Air Temp Water Temp Dewpoint Dewpoint Depression Visibility Wind Speed Wind Dir Waves Ship Positions

America

Owner: ET Yacht, LLC, San Diego, CA. More information available from US FCC via Universal Licensing System and Coast Guard Vessel Documentation Center.

Last reported at 2018-Feb-18 10:48 UTC. Time now 2018-Feb-22 19:05 UTC.
Position N 32°43' W 117°10'.

Length 42 m; draft 3.5 m.

Type: Sailing vessel. MMSI: 367375550.

Date/timePositionNaut miles runAvg speedWind from/ knotsBaromVisibWave heightAir tempDewpointWater temp
2018-Feb-18 10:48N 32°43' W 117°10'0 0.0
2018-Feb-18 10:24N 32°43' W 117°10'0 0.0
2018-Feb-18 09:59N 32°43' W 117°10'0 0.0
2018-Feb-18 09:25N 32°43' W 117°10'  
2018-Feb-15 22:11N 32°38' W 117°15'1 4.1
2018-Feb-15 21:59N 32°38' W 117°15'  
2018-Feb-13 11:32N 32°43' W 117°10'0 0.1
2018-Feb-13 11:29N 32°43' W 117°10'0 0.0
2018-Feb-13 10:50N 32°43' W 117°10'0 0.0
2018-Feb-13 10:17N 32°43' W 117°10'0 0.0
2018-Feb-13 09:58N 32°43' W 117°10'0 0.0
2018-Feb-13 09:23N 32°43' W 117°10'0 0.0
2018-Feb-13 08:58N 32°43' W 117°10'0 0.0
2018-Feb-13 08:16N 32°43' W 117°10'0 0.0
2018-Feb-13 07:54N 32°43' W 117°10'0 0.0
2018-Feb-13 07:03N 32°43' W 117°10'0 0.0
2018-Feb-13 05:20N 32°43' W 117°10'0 0.0
2018-Feb-13 04:49N 32°43' W 117°10'7 0.9
2018-Feb-12 21:52N 32°38' W 117°15'2 5.8
2018-Feb-12 21:30N 32°39' W 117°17'4 5.9
2018-Feb-12 20:48N 32°37' W 117°13'1 2.6
2018-Feb-12 20:26N 32°37' W 117°12'2 5.4
2018-Feb-12 19:59N 32°39' W 117°14'4 8.0
2018-Feb-12 19:30N 32°42' W 117°13'3 0.5
2018-Feb-12 13:39N 32°43' W 117°10'0 0.0
2018-Feb-12 12:39N 32°43' W 117°10'5 0.3
2018-Feb-11 21:56N 32°39' W 117°13'4 3.8
2018-Feb-11 20:53N 32°35' W 117°14'1 2.7
2018-Feb-11 20:30N 32°36' W 117°14'3 5.0
2018-Feb-11 19:58N 32°39' W 117°14'4 8.4
2018-Feb-11 19:28N 32°43' W 117°13'2 0.1
2018-Feb-10 22:01N 32°41' W 117°14'0 5.8
2018-Feb-10 22:00N 32°40' W 117°14'5 5.4
2018-Feb-10 21:02N 32°35' W 117°14'0 2.3
2018-Feb-10 21:00N 32°35' W 117°14'4 4.1
2018-Feb-10 19:59N 32°39' W 117°14'3 6.2
2018-Feb-10 19:31N 32°42' W 117°13'3 0.3
2018-Feb-10 08:48N 32°43' W 117°10'0 0.0
2018-Feb-10 05:30N 32°43' W 117°10'0 0.0
2018-Feb-10 04:33N 32°43' W 117°10'0 0.1
2018-Feb-10 04:30N 32°43' W 117°10'0 0.0
2018-Feb-10 00:34N 32°43' W 117°10'0 0.0
2018-Feb-10 00:14N 32°43' W 117°10'0 0.0
2018-Feb-10 00:00N 32°43' W 117°10'0 0.0
2018-Feb-09 23:15N 32°43' W 117°10'0 0.1
2018-Feb-09 22:58N 32°43' W 117°10'5 6.0
2018-Feb-09 22:09N 32°39' W 117°14'  
Track history (hours):
 
Tides and Currents Weather Stations Pressure Air Temp Water Temp Dewpoint Dewpoint Depression Visibility Wind Speed Wind Dir Waves Ship Positions

America

Owner: ET Yacht, LLC, San Diego, CA. More information available from US FCC via Universal Licensing System and Coast Guard Vessel Documentation Center.

Last reported at 2018-Feb-18 10:48 UTC. Time now 2018-Feb-22 19:05 UTC.
Position N 32°43' W 117°10'.

Length 42 m; draft 3.5 m.

Type: Sailing vessel. MMSI: 367375550.

Date/timePositionNaut miles runAvg speedWind from/ knotsBaromVisibWave heightAir tempDewpointWater temp
2018-Feb-18 10:48N 32°43' W 117°10'0 0.0
2018-Feb-18 10:24N 32°43' W 117°10'0 0.0
2018-Feb-18 09:59N 32°43' W 117°10'0 0.0
2018-Feb-18 09:25N 32°43' W 117°10'  
2018-Feb-15 22:11N 32°38' W 117°15'1 4.1
2018-Feb-15 21:59N 32°38' W 117°15'  
2018-Feb-13 11:32N 32°43' W 117°10'0 0.1
2018-Feb-13 11:29N 32°43' W 117°10'0 0.0
2018-Feb-13 10:50N 32°43' W 117°10'0 0.0
2018-Feb-13 10:17N 32°43' W 117°10'0 0.0
2018-Feb-13 09:58N 32°43' W 117°10'0 0.0
2018-Feb-13 09:23N 32°43' W 117°10'0 0.0
2018-Feb-13 08:58N 32°43' W 117°10'0 0.0
2018-Feb-13 08:16N 32°43' W 117°10'0 0.0
2018-Feb-13 07:54N 32°43' W 117°10'0 0.0
2018-Feb-13 07:03N 32°43' W 117°10'0 0.0
2018-Feb-13 05:20N 32°43' W 117°10'0 0.0
2018-Feb-13 04:49N 32°43' W 117°10'7 0.9
2018-Feb-12 21:52N 32°38' W 117°15'2 5.8
2018-Feb-12 21:30N 32°39' W 117°17'4 5.9
2018-Feb-12 20:48N 32°37' W 117°13'1 2.6
2018-Feb-12 20:26N 32°37' W 117°12'2 5.4
2018-Feb-12 19:59N 32°39' W 117°14'4 8.0
2018-Feb-12 19:30N 32°42' W 117°13'3 0.5
2018-Feb-12 13:39N 32°43' W 117°10'0 0.0
2018-Feb-12 12:39N 32°43' W 117°10'5 0.3
2018-Feb-11 21:56N 32°39' W 117°13'4 3.8
2018-Feb-11 20:53N 32°35' W 117°14'1 2.7
2018-Feb-11 20:30N 32°36' W 117°14'3 5.0
2018-Feb-11 19:58N 32°39' W 117°14'4 8.4
2018-Feb-11 19:28N 32°43' W 117°13'2 0.1
2018-Feb-10 22:01N 32°41' W 117°14'0 5.8
2018-Feb-10 22:00N 32°40' W 117°14'5 5.4
2018-Feb-10 21:02N 32°35' W 117°14'0 2.3
2018-Feb-10 21:00N 32°35' W 117°14'4 4.1
2018-Feb-10 19:59N 32°39' W 117°14'3 6.2
2018-Feb-10 19:31N 32°42' W 117°13'3 0.3
2018-Feb-10 08:48N 32°43' W 117°10'0 0.0
2018-Feb-10 05:30N 32°43' W 117°10'0 0.0
2018-Feb-10 04:33N 32°43' W 117°10'0 0.1
2018-Feb-10 04:30N 32°43' W 117°10'0 0.0
2018-Feb-10 00:34N 32°43' W 117°10'0 0.0
2018-Feb-10 00:14N 32°43' W 117°10'0 0.0
2018-Feb-10 00:00N 32°43' W 117°10'0 0.0
2018-Feb-09 23:15N 32°43' W 117°10'0 0.1
2018-Feb-09 22:58N 32°43' W 117°10'5 6.0
2018-Feb-09 22:09N 32°39' W 117°14'  

Dump ship's entire track history